Aviation Digital Data Service (ADDS)

Output produced by METARs form (1707 UTC 16 June 2019)
found at http://www.aviationweather.gov/metar/data/
 
VGEG 161600Z 18010KT 6000 SCT018 FEW030CB BKN100 30/29 Q1002 NOSIG
TAF VGEG 161700Z 1618/1724 13004KT 4000 HZ SCT015 SCT110 
     BECMG 1705/1707 22010KT 5000 HZ SCT017 SCT120 
     BECMG 1714/1716 12004KT 4000 HZ SCT015 BKN110 
     TEMPO 1717/1724 30015KT 2000 -RA/TSRA SCT007 FEW028CB BKN090